NCAR-RAP Real-Time Weather Data

Output produced by METARs form (12 August 2020  18:24 UTC)
found at http://weather.rap.ucar.edu/surface/
 
KOFK 121756Z AUTO 19011KT 10SM CLR 31/20 A2993 RMK AO2 SLP120 T03060200 10306 20239 50001
KOFK 121656Z AUTO 18012G21KT 10SM CLR 29/20 A2995 RMK AO2 PK WND 19027/1619 SLP125 T02940200
KOFK 121556Z AUTO 18015G24KT 10SM CLR 28/21 A2993 RMK AO2 PK WND 18028/1541 SLP119 T02830211
KOFK 121456Z AUTO 17010KT 10SM CLR 27/21 A2993 RMK AO2 SLP120 T02670206 50001
KOFK 121356Z AUTO 16013KT 10SM CLR 24/21 A2994 RMK AO2 SLP124 T02440206 TSNO
KOFK 121256Z AUTO 18013KT 10SM CLR 24/20 A2995 RMK AO2 SLP125 T02440200 TSNO
KOFK 121156Z AUTO 19014G23KT 10SM CLR 24/21 A2993 RMK AO2 PK WND 18028/1105 SLP119 60012 70012 T02390206 10250 20228 53005 TSNO
KOFK 121056Z AUTO 19019G25KT 10SM CLR 24/22 A2991 RMK AO2 SLP111 T02390217 TSNO
KOFK 120956Z AUTO 16011KT 10SM CLR 24/22 A2990 RMK AO2 SLP111 T02390222 TSNO
KOFK 120856Z AUTO 16008KT 10SM FEW110 24/23 A2991 RMK AO2 SLP112 60012 T02390228 55017
KOFK 120756Z AUTO 17007G22KT 10SM CLR 24/23 A2990 RMK AO2 RAE10 TSE00 SLP108 P0000 T02390228
KOFK 120718Z AUTO 16007KT 10SM SCT110 23/21 A2993 RMK AO2 RAE10 TSE00 PRESFR P0000 T02280211
KOFK 120706Z AUTO 17010KT 10SM VCTS -RA FEW060 FEW070 BKN110 23/21 A2995 RMK AO2 LTG DSNT N TSE00 PRESFR P0000 T02330211
KOFK 120656Z AUTO 16012G21KT 6SM -TSRA BR FEW016 BKN070 OVC110 24/22 A2997 RMK AO2 LTG DSNT N AND S RAB33 TSB32 SLP134 P0012 T02390217
KOFK 120638Z AUTO 20009G19KT 5SM +TSRA BR FEW009 SCT055 BKN080 25/23 A2999 RMK AO2 LTG DSNT ALQDS RAB33 TSB32 P0000 T02500228
KOFK 120629Z AUTO 20009KT 10SM VCTS SCT009 SCT050 BKN075 25/23 A2999 RMK AO2 LTG DSNT SW-N T02500228
KOFK 120622Z AUTO 20010KT 10SM VCTS FEW050 25/23 A2998 RMK AO2 LTG DSNT SW-N T02500228
KOFK 120556Z AUTO 15011KT 10SM SCT100 25/23 A2996 RMK AO2 LTG DSNT SW-N SLP131 60000 T02500228 10294 20244 403110133 50002
KOFK 120456Z AUTO 17012KT 10SM SCT019 25/22 A2997 RMK AO2 RAB41E50 SLP134 P0000 T02500222
KOFK 120418Z AUTO 17010KT 10SM BKN023 25/22 A2995 RMK AO2 T02500222
KOFK 120356Z AUTO 14008KT 10SM CLR 25/22 A2996 RMK AO2 SLP131 T02500222
KOFK 120256Z AUTO 11005KT 10SM CLR 25/22 A2994 RMK AO2 SLP126 T02500217 53017
KOFK 120156Z AUTO 14008KT 10SM CLR 26/22 A2991 RMK AO2 SLP116 T02610217
KOFK 120056Z AUTO 13011KT 10SM FEW030 27/22 A2989 RMK AO2 SLP109 T02720217
KOFK 112356Z AUTO 12011G19KT 10SM FEW033 29/21 A2989 RMK AO2 SLP109 T02940211 10311 20278 56018
KOFK 112256Z AUTO 15015G21KT 10SM FEW040 31/21 A2990 RMK AO2 SLP114 T03060206
KOFK 112156Z AUTO 16011KT 10SM CLR 31/19 A2993 RMK AO2 SLP123 T03060194